Time;durP1;ratioP1;P1;durP2;ratioP2;P2;SDS_P1;SDS_P2;PMS_P1;PMS_P2;Temp;Humidity;BMP_temperature;BMP_pressure;BME280_temperature;BME280_humidity;BME280_pressure;Samples;Min_cycle;Max_cycle;Signal;HPM_P1;HPM_P2
2024/02/05 00:00:06;;;;;;;;;;;;;;;17.32;46.63;99934.28;10251892;28;854;-67
2024/02/05 00:05:01;;;;;;;;;;;;;;;17.29;46.64;99930.00;10250984;28;1894;-67
2024/02/05 00:09:57;;;;;;;;;;;;;;;17.27;46.68;99939.72;10251317;28;925;-67
2024/02/05 00:14:53;;;;;;;;;;;;;;;17.26;46.64;99945.88;10250234;28;1067;-67
2024/02/05 00:19:49;;;;;;;;;;;;;;;17.23;46.90;99953.06;10250661;28;786;-67
2024/02/05 00:24:45;;;;;;;;;;;;;;;17.22;46.60;99948.72;10250378;28;1906;-67
2024/02/05 00:29:41;;;;;;;;;;;;;;;17.20;46.66;99940.00;10250570;28;1519;-67
2024/02/05 00:34:37;;;;;;;;;;;;;;;17.17;46.71;99937.50;10250844;28;779;-67
2024/02/05 00:39:33;;;;;;;;;;;;;;;17.15;46.84;99934.91;10250712;28;846;-67
2024/02/05 00:44:29;;;;;;;;;;;;;;;17.14;46.78;99934.97;10248858;28;1969;-67
2024/02/05 00:49:25;;;;;;;;;;;;;;;17.12;46.82;99947.34;10249524;28;880;-68
2024/02/05 00:54:21;;;;;;;;;;;;;;;17.10;46.90;99942.13;10249841;28;869;-67
2024/02/05 00:59:17;;;;;;;;;;;;;;;17.07;46.96;99948.34;10249148;28;874;-67
2024/02/05 01:04:13;;;;;;;;;;;;;;;17.06;47.00;99944.03;10248762;28;1947;-67
2024/02/05 01:09:09;;;;;;;;;;;;;;;17.05;46.77;99958.09;10248937;28;923;-68
2024/02/05 01:14:05;;;;;;;;;;;;;;;17.04;46.84;99942.34;10248578;28;970;-67
2024/02/05 01:19:01;;;;;;;;;;;;;;;17.02;46.91;99938.91;10249020;28;865;-67
2024/02/05 01:23:57;;;;;;;;;;;;;;;17.00;46.84;99938.09;10247593;28;1898;-67
2024/02/05 01:28:53;;;;;;;;;;;;;;;16.98;46.98;99940.81;10247969;28;1178;-67
2024/02/05 01:33:49;;;;;;;;;;;;;;;16.96;46.88;99941.78;10248874;28;1120;-67
2024/02/05 01:38:44;;;;;;;;;;;;;;;16.95;46.98;99940.06;10248289;28;931;-67
2024/02/05 01:43:40;;;;;;;;;;;;;;;16.94;47.03;99946.25;10247587;28;930;-67
2024/02/05 01:48:36;;;;;;;;;;;;;;;16.92;47.11;99943.66;10248125;28;1918;-67
2024/02/05 01:53:34;;;;;;;;;;;;;;;16.91;47.03;99938.47;10246152;28;1094;-67
2024/02/05 01:58:29;;;;;;;;;;;;;;;16.89;46.91;99945.56;10246847;28;1025;-67
2024/02/05 02:03:26;;;;;;;;;;;;;;;16.88;47.07;99928.03;10246754;28;822;-67
2024/02/05 02:08:22;;;;;;;;;;;;;;;16.86;47.10;99926.31;10246357;28;1956;-67
2024/02/05 02:13:18;;;;;;;;;;;;;;;16.85;46.98;99932.50;10246431;28;856;-67
2024/02/05 02:18:14;;;;;;;;;;;;;;;16.83;46.98;99925.56;10246760;28;864;-67
2024/02/05 02:23:10;;;;;;;;;;;;;;;16.81;46.97;99933.50;10245941;28;890;-67
2024/02/05 02:28:06;;;;;;;;;;;;;;;16.80;47.11;99931.81;10245706;28;1959;-67
2024/02/05 02:33:02;;;;;;;;;;;;;;;16.79;46.94;99935.38;10245986;28;1410;-67
2024/02/05 02:37:59;;;;;;;;;;;;;;;16.78;46.91;99938.91;10245258;28;1034;-68
2024/02/05 02:42:58;;;;;;;;;;;;;;;16.77;47.07;99936.31;10245316;28;794;-68
2024/02/05 02:47:54;;;;;;;;;;;;;;;16.76;47.04;99932.78;10245655;28;1989;-67
2024/02/05 02:52:51;;;;;;;;;;;;;;;16.74;46.99;99932.00;10245703;28;953;-67
2024/02/05 02:57:47;;;;;;;;;;;;;;;16.74;47.06;99937.28;10244705;28;775;-67
2024/02/05 03:02:43;;;;;;;;;;;;;;;16.72;47.07;99928.56;10244941;28;1542;-67
2024/02/05 03:07:38;;;;;;;;;;;;;;;16.71;47.15;99934.72;10244310;28;1894;-68
2024/02/05 03:12:34;;;;;;;;;;;;;;;16.70;46.91;99940.06;10244940;28;964;-67
2024/02/05 03:17:30;;;;;;;;;;;;;;;16.68;47.00;99942.72;10244823;28;827;-67
2024/02/05 03:22:26;;;;;;;;;;;;;;;16.67;47.19;99956.81;10244060;28;868;-67
2024/02/05 03:27:22;;;;;;;;;;;;;;;16.66;47.20;99955.09;10243983;28;1961;-67
2024/02/05 03:32:18;;;;;;;;;;;;;;;16.65;47.08;99945.47;10243957;28;1208;-67
2024/02/05 03:37:14;;;;;;;;;;;;;;;16.64;47.01;99943.78;10243650;28;859;-67
2024/02/05 03:42:10;;;;;;;;;;;;;;;16.64;47.14;99946.41;10244362;28;887;-67
2024/02/05 03:47:06;;;;;;;;;;;;;;;16.62;47.01;99954.34;10243602;28;1926;-67
2024/02/05 03:52:02;;;;;;;;;;;;;;;16.60;47.05;99943.00;10244274;28;928;-67
2024/02/05 03:56:58;;;;;;;;;;;;;;;16.60;46.94;99939.53;10243402;28;1516;-67
2024/02/05 04:01:54;;;;;;;;;;;;;;;16.59;47.04;99936.03;10244216;28;854;-67
2024/02/05 04:06:50;;;;;;;;;;;;;;;16.58;47.14;99946.59;10243146;28;1894;-68
2024/02/05 04:11:46;;;;;;;;;;;;;;;16.56;47.11;99958.97;10244617;28;869;-67
2024/02/05 04:16:41;;;;;;;;;;;;;;;16.56;47.11;99940.56;10244116;28;801;-67
2024/02/05 04:21:37;;;;;;;;;;;;;;;16.54;46.98;99939.75;10251233;28;819;-67
2024/02/05 04:26:33;;;;;;;;;;;;;;;16.53;46.92;99952.03;10251514;28;1894;-67
2024/02/05 04:31:29;;;;;;;;;;;;;;;16.53;47.25;99948.53;10250673;28;1149;-67
2024/02/05 04:36:25;;;;;;;;;;;;;;;16.51;47.07;99951.25;10250055;28;790;-67
2024/02/05 04:41:21;;;;;;;;;;;;;;;16.50;47.02;99957.38;10249916;28;776;-68
2024/02/05 04:46:17;;;;;;;;;;;;;;;16.49;46.91;99946.94;10250170;28;1898;-67
2024/02/05 04:51:13;;;;;;;;;;;;;;;16.49;47.18;99941.69;10249430;28;857;-67
2024/02/05 04:56:09;;;;;;;;;;;;;;;16.54;46.89;99932.69;10250153;28;871;-67
2024/02/05 05:01:05;;;;;;;;;;;;;;;16.57;47.06;99950.16;10249131;28;771;-68
2024/02/05 05:06:01;;;;;;;;;;;;;;;16.59;46.85;99943.94;10249265;28;1915;-67
2024/02/05 05:10:57;;;;;;;;;;;;;;;16.61;46.95;99946.50;10248745;28;799;-68
2024/02/05 05:15:52;;;;;;;;;;;;;;;16.62;46.79;99942.97;10249185;28;976;-67
2024/02/05 05:20:48;;;;;;;;;;;;;;;16.65;46.87;99938.44;10249042;28;861;-67
2024/02/05 05:25:44;;;;;;;;;;;;;;;16.69;46.76;99946.22;10248145;28;1894;-67
2024/02/05 05:30:40;;;;;;;;;;;;;;;16.72;46.92;99949.63;10247234;28;1131;-67
2024/02/05 05:35:36;;;;;;;;;;;;;;;16.77;46.88;99937.19;10247795;28;862;-68
2024/02/05 05:40:33;;;;;;;;;;;;;;;16.80;46.51;99944.13;10247601;28;929;-67
2024/02/05 05:45:29;;;;;;;;;;;;;;;16.83;46.81;99936.97;10247389;28;1938;-67
2024/02/05 05:50:25;;;;;;;;;;;;;;;16.86;46.67;99939.47;10247254;28;861;-68
2024/02/05 05:55:21;;;;;;;;;;;;;;;16.89;46.46;99927.13;10247126;28;905;-67
2024/02/05 06:00:17;;;;;;;;;;;;;;;16.91;46.50;99926.16;10247411;28;861;-67
2024/02/05 06:05:13;;;;;;;;;;;;;;;16.93;46.67;99919.06;10247195;28;1981;-67
2024/02/05 06:10:09;;;;;;;;;;;;;;;16.97;46.50;99925.06;10246343;28;953;-68
2024/02/05 06:15:07;;;;;;;;;;;;;;;16.98;46.31;99927.66;10246205;28;949;-67
2024/02/05 06:20:05;;;;;;;;;;;;;;;17.03;46.37;99927.50;10246221;28;787;-67
2024/02/05 06:25:02;;;;;;;;;;;;;;;17.03;46.34;99933.59;10245194;28;1911;-68
2024/02/05 06:29:58;;;;;;;;;;;;;;;17.06;46.27;99936.13;10245696;28;1449;-68
2024/02/05 06:34:53;;;;;;;;;;;;;;;17.09;46.21;99938.63;10246198;28;852;-68
2024/02/05 06:39:49;;;;;;;;;;;;;;;17.10;46.31;99939.47;10245016;28;959;-69
2024/02/05 06:44:46;;;;;;;;;;;;;;;17.14;46.49;99943.75;10246295;28;1906;-68
2024/02/05 06:49:41;;;;;;;;;;;;;;;17.15;46.28;99948.06;10245573;28;940;-68
2024/02/05 06:54:37;;;;;;;;;;;;;;;17.17;46.44;99954.16;10245619;28;882;-68
2024/02/05 06:59:33;;;;;;;;;;;;;;;17.17;46.41;99954.16;10244482;28;905;-68
2024/02/05 07:04:29;;;;;;;;;;;;;;;17.19;46.46;99954.09;10243836;28;1882;-68
2024/02/05 07:09:26;;;;;;;;;;;;;;;17.17;46.53;99956.78;10245039;28;933;-68
2024/02/05 07:14:22;;;;;;;;;;;;;;;17.20;46.39;99963.72;10244884;28;811;-68
2024/02/05 07:19:17;;;;;;;;;;;;;;;17.19;46.54;99954.97;10244179;28;952;-68
2024/02/05 07:24:13;;;;;;;;;;;;;;;17.18;46.37;99958.50;10245172;28;1886;-68
2024/02/05 07:29:09;;;;;;;;;;;;;;;17.18;46.57;99957.63;10244186;28;1195;-67
2024/02/05 07:34:05;;;;;;;;;;;;;;;17.18;46.25;99978.72;10244536;28;813;-68
2024/02/05 07:39:06;;;;;;;;;;;;;;;17.17;46.53;99980.50;10243286;28;943;-68
2024/02/05 07:44:02;;;;;;;;;;;;;;;17.17;46.39;99984.91;10243632;28;1910;-68
2024/02/05 07:48:57;;;;;;;;;;;;;;;17.19;46.29;100001.53;10244622;28;774;-68
2024/02/05 07:53:54;;;;;;;;;;;;;;;17.19;46.24;99998.88;10247339;28;854;-68
2024/02/05 07:58:50;;;;;;;;;;;;;;;17.20;46.60;100006.72;10251501;28;902;-68
2024/02/05 08:03:46;;;;;;;;;;;;;;;17.22;46.43;99990.88;10251393;28;873;-68
2024/02/05 08:08:41;;;;;;;;;;;;;;;17.22;46.59;100002.25;10251731;28;1906;-68
2024/02/05 08:13:38;;;;;;;;;;;;;;;17.23;46.68;99989.94;10250928;28;929;-67
2024/02/05 08:18:34;;;;;;;;;;;;;;;17.26;46.63;99993.31;10250800;28;822;-68
2024/02/05 08:23:30;;;;;;;;;;;;;;;17.27;46.68;99999.47;10250604;28;814;-68
2024/02/05 08:28:26;;;;;;;;;;;;;;;17.28;46.67;99998.53;10250979;28;1965;-68
2024/02/05 08:33:22;;;;;;;;;;;;;;;17.29;46.55;100003.75;10250052;28;1331;-68
2024/02/05 08:38:17;;;;;;;;;;;;;;;17.29;46.54;100005.50;10250762;28;842;-72
2024/02/05 08:43:13;;;;;;;;;;;;;;;17.30;46.34;100023.06;10250384;28;935;-68
2024/02/05 08:48:09;;;;;;;;;;;;;;;17.33;46.29;100008.91;10250166;28;1918;-71
2024/02/05 08:53:05;;;;;;;;;;;;;;;17.28;46.13;100002.03;10248922;28;1052;-71
2024/02/05 08:58:01;;;;;;;;;;;;;;;17.27;46.13;100005.59;10249337;28;893;-68
2024/02/05 09:02:57;;;;;;;;;;;;;;;17.29;46.12;100006.41;10247683;28;823;-68
2024/02/05 09:07:53;;;;;;;;;;;;;;;17.30;45.90;100004.63;10249419;28;1902;-67
2024/02/05 09:12:49;;;;;;;;;;;;;;;17.29;45.91;99994.97;10249393;28;795;-68
2024/02/05 09:17:45;;;;;;;;;;;;;;;17.33;45.73;100016.81;10249208;28;889;-68
2024/02/05 09:22:45;;;;;;;;;;;;;;;17.33;45.89;100006.28;10248671;28;877;-67
2024/02/05 09:27:41;;;;;;;;;;;;;;;17.34;46.03;100005.34;10248124;28;1901;-67
2024/02/05 09:32:37;;;;;;;;;;;;;;;17.35;45.79;100000.03;10247895;28;1685;-67
2024/02/05 09:37:33;;;;;;;;;;;;;;;17.36;45.65;99999.09;10248440;28;879;-67
2024/02/05 09:42:29;;;;;;;;;;;;;;;17.39;45.56;99991.06;10247076;28;866;-67
2024/02/05 09:47:25;;;;;;;;;;;;;;;17.38;45.60;99985.88;10248524;28;1977;-67
2024/02/05 09:52:21;;;;;;;;;;;;;;;17.40;45.48;99977.00;10247418;28;979;-68
2024/02/05 09:57:17;;;;;;;;;;;;;;;17.39;45.62;99987.59;10246761;28;1024;-67
2024/02/05 10:02:12;;;;;;;;;;;;;;;17.41;45.50;99988.41;10246901;28;774;-67
2024/02/05 10:07:08;;;;;;;;;;;;;;;17.43;45.42;99992.69;10246063;28;1898;-67
2024/02/05 10:12:04;;;;;;;;;;;;;;;17.41;45.58;99986.63;10247168;28;782;-67
2024/02/05 10:17:00;;;;;;;;;;;;;;;17.42;45.27;99991.00;10245407;28;916;-67
2024/02/05 10:21:56;;;;;;;;;;;;;;;17.47;45.14;99989.00;10246729;28;819;-67
2024/02/05 10:26:52;;;;;;;;;;;;;;;17.44;45.23;99999.66;10246466;28;1905;-67
2024/02/05 10:31:49;;;;;;;;;;;;;;;17.45;45.33;99996.13;10245853;28;1319;-68
2024/02/05 10:36:45;;;;;;;;;;;;;;;17.46;45.36;99992.56;10246097;28;841;-67
2024/02/05 10:41:41;;;;;;;;;;;;;;;17.45;45.44;100014.59;10245256;28;821;-68
2024/02/05 10:46:36;;;;;;;;;;;;;;;17.46;45.40;100007.53;10243871;28;1981;-68
2024/02/05 10:51:32;;;;;;;;;;;;;;;17.47;45.07;99999.53;10244615;28;744;-68
2024/02/05 10:56:28;;;;;;;;;;;;;;;17.51;45.22;99997.66;10244674;28;900;-68
2024/02/05 11:01:24;;;;;;;;;;;;;;;17.51;45.26;99992.41;10244366;28;1013;-72
2024/02/05 11:06:20;;;;;;;;;;;;;;;17.52;45.17;99994.09;10244385;28;1898;-68
2024/02/05 11:11:16;;;;;;;;;;;;;;;17.52;45.13;99991.47;10243661;28;784;-68
2024/02/05 11:16:12;;;;;;;;;;;;;;;17.55;45.27;99985.22;10244172;28;860;-67
2024/02/05 11:21:08;;;;;;;;;;;;;;;17.55;45.28;99972.91;10244023;28;798;-68
2024/02/05 11:26:04;;;;;;;;;;;;;;;17.57;44.93;99964.94;10243903;28;1964;-68
2024/02/05 11:31:00;;;;;;;;;;;;;;;17.56;45.12;99966.72;10244307;28;1111;-68
2024/02/05 11:35:56;;;;;;;;;;;;;;;17.58;45.13;99956.09;10244253;28;850;-68
2024/02/05 11:40:52;;;;;;;;;;;;;;;17.58;45.03;99937.66;10243645;28;834;-67
2024/02/05 11:45:48;;;;;;;;;;;;;;;17.58;45.17;99933.28;10243422;28;1922;-67
2024/02/05 11:50:44;;;;;;;;;;;;;;;17.57;45.11;99923.63;10243425;28;864;-68
2024/02/05 11:55:40;;;;;;;;;;;;;;;17.62;44.99;99920.81;10243976;28;940;-68
2024/02/05 12:00:36;;;;;;;;;;;;;;;17.65;44.64;99913.63;10243763;28;865;-72
2024/02/05 12:05:32;;;;;;;;;;;;;;;17.66;45.00;99907.47;10243581;28;1957;-72
2024/02/05 12:10:27;;;;;;;;;;;;;;;17.68;45.03;99910.03;10243812;28;834;-68
2024/02/05 12:15:27;;;;;;;;;;;;;;;17.69;44.98;99898.56;10242536;28;935;-67
2024/02/05 12:20:23;;;;;;;;;;;;;;;17.71;44.70;99899.34;10242847;28;858;-68
2024/02/05 12:25:19;;;;;;;;;;;;;;;17.75;44.43;99895.69;10242639;28;1953;-67
2024/02/05 12:30:15;;;;;;;;;;;;;;;17.71;44.84;99902.88;10242870;28;1121;-67
2024/02/05 12:35:11;;;;;;;;;;;;;;;17.78;44.78;99898.19;10242474;28;985;-68
2024/02/05 12:40:07;;;;;;;;;;;;;;;17.74;44.82;99889.56;10246289;28;964;-68
2024/02/05 12:45:03;;;;;;;;;;;;;;;17.75;44.65;99885.97;10249456;28;1981;-67
2024/02/05 12:49:59;;;;;;;;;;;;;;;17.78;44.91;99884.16;10249672;28;826;-67
2024/02/05 12:54:55;;;;;;;;;;;;;;;17.89;44.53;99874.03;10249338;28;888;-68
2024/02/05 12:59:51;;;;;;;;;;;;;;;17.87;44.71;99868.00;10249603;28;826;-67
2024/02/05 13:04:47;;;;;;;;;;;;;;;17.93;44.75;99854.53;10249420;28;1906;-67
2024/02/05 13:09:43;;;;;;;;;;;;;;;18.01;44.17;99847.16;10248710;28;899;-68
2024/02/05 13:14:41;;;;;;;;;;;;;;;18.01;44.30;99844.53;10248619;28;935;-67
2024/02/05 13:19:37;;;;;;;;;;;;;;;18.08;44.19;99851.25;10248950;28;814;-68
2024/02/05 13:24:33;;;;;;;;;;;;;;;18.06;44.17;99829.38;10248619;28;1902;-68
2024/02/05 13:29:29;;;;;;;;;;;;;;;18.11;43.82;99834.44;10247735;28;1237;-71
2024/02/05 13:34:26;;;;;;;;;;;;;;;18.10;43.97;99830.97;10247881;28;885;-68
2024/02/05 13:39:25;;;;;;;;;;;;;;;18.16;43.66;99822.78;10247687;28;895;-68
2024/02/05 13:44:21;;;;;;;;;;;;;;;18.16;43.89;99825.41;10248070;28;1910;-70
2024/02/05 13:49:16;;;;;;;;;;;;;;;18.19;43.66;99829.69;10247468;28;823;-68
2024/02/05 13:54:12;;;;;;;;;;;;;;;18.21;43.86;99819.94;10246587;28;910;-68
2024/02/05 13:59:08;;;;;;;;;;;;;;;18.20;44.03;99802.38;10246916;28;807;-68
2024/02/05 14:04:04;;;;;;;;;;;;;;;18.25;43.95;99802.19;10246580;28;865;-68
2024/02/05 14:09:00;;;;;;;;;;;;;;;18.32;44.03;99803.63;10246319;28;1894;-67
2024/02/05 14:13:56;;;;;;;;;;;;;;;18.30;43.98;99808.97;10246080;28;871;-68
2024/02/05 14:18:52;;;;;;;;;;;;;;;18.24;44.25;99808.38;10246338;28;913;-68
2024/02/05 14:23:48;;;;;;;;;;;;;;;18.24;44.15;99808.38;10246226;28;818;-67
2024/02/05 14:28:44;;;;;;;;;;;;;;;18.22;44.43;99799.69;10245403;28;1906;-68
2024/02/05 14:33:40;;;;;;;;;;;;;;;18.17;44.43;99803.38;10246545;28;1150;-67
2024/02/05 14:38:36;;;;;;;;;;;;;;;18.17;43.99;99802.50;10244304;28;917;-68
2024/02/05 14:43:31;;;;;;;;;;;;;;;18.14;44.36;99808.78;10245465;28;928;-68
2024/02/05 14:48:27;;;;;;;;;;;;;;;18.20;44.54;99806.81;10244763;28;1906;-67
2024/02/05 14:53:24;;;;;;;;;;;;;;;18.13;44.37;99807.06;10245179;28;829;-68
2024/02/05 14:58:20;;;;;;;;;;;;;;;18.11;44.65;99802.78;10244930;28;943;-68
2024/02/05 15:03:16;;;;;;;;;;;;;;;18.09;44.60;99802.84;10243830;28;758;-68
2024/02/05 15:08:12;;;;;;;;;;;;;;;18.06;44.76;99795.06;10244563;28;1898;-66
2024/02/05 15:13:07;;;;;;;;;;;;;;;18.01;44.46;99797.06;10244233;28;976;-66
2024/02/05 15:18:03;;;;;;;;;;;;;;;17.98;44.10;99804.25;10243275;28;827;-66
2024/02/05 15:22:59;;;;;;;;;;;;;;;17.93;44.32;99799.16;10243272;28;898;-66
2024/02/05 15:27:55;;;;;;;;;;;;;;;17.91;44.07;99808.91;10243535;28;1906;-66
2024/02/05 15:32:51;;;;;;;;;;;;;;;17.88;44.02;99794.09;10243948;28;1462;-66
2024/02/05 15:37:47;;;;;;;;;;;;;;;17.88;44.11;99791.44;10243765;28;1530;-67
2024/02/05 15:42:43;;;;;;;;;;;;;;;17.87;44.15;99794.16;10243345;28;1002;-68
2024/02/05 15:47:39;;;;;;;;;;;;;;;17.90;44.07;99797.53;10243417;28;1985;-68
2024/02/05 15:52:35;;;;;;;;;;;;;;;17.91;43.99;99787.81;10243110;28;962;-68
2024/02/05 15:57:31;;;;;;;;;;;;;;;17.88;44.29;99790.59;10243393;28;857;-67
2024/02/05 16:02:27;;;;;;;;;;;;;;;17.90;44.18;99788.75;10243788;28;936;-67
2024/02/05 16:07:23;;;;;;;;;;;;;;;17.88;44.16;99783.53;10243652;28;1894;-67
2024/02/05 16:12:19;;;;;;;;;;;;;;;17.88;44.12;99780.03;10242719;28;826;-67
2024/02/05 16:17:14;;;;;;;;;;;;;;;17.85;44.52;99788.09;10250241;28;833;-68
2024/02/05 16:22:10;;;;;;;;;;;;;;;17.84;44.39;99781.09;10249897;28;913;-67
2024/02/05 16:27:08;;;;;;;;;;;;;;;17.81;44.43;99776.81;10250354;28;1898;-68
2024/02/05 16:32:03;;;;;;;;;;;;;;;17.81;44.37;99781.22;10250510;28;1145;-67
2024/02/05 16:36:59;;;;;;;;;;;;;;;17.80;44.28;99780.38;10249977;28;881;-67
2024/02/05 16:41:55;;;;;;;;;;;;;;;17.83;44.28;99776.75;10250617;28;795;-68
2024/02/05 16:46:52;;;;;;;;;;;;;;;17.81;44.38;99773.31;10249500;28;1964;-67
2024/02/05 16:51:48;;;;;;;;;;;;;;;17.79;44.29;99769.84;10249962;28;961;-67
2024/02/05 16:56:45;;;;;;;;;;;;;;;17.78;44.16;99761.09;10249241;28;803;-67
2024/02/05 17:01:40;;;;;;;;;;;;;;;17.80;44.38;99772.47;10249126;28;945;-68
2024/02/05 17:06:36;;;;;;;;;;;;;;;17.78;44.55;99770.78;10249405;28;1978;-68
2024/02/05 17:11:32;;;;;;;;;;;;;;;17.80;44.23;99768.97;10249334;28;940;-68
2024/02/05 17:16:28;;;;;;;;;;;;;;;17.79;44.59;99767.22;10248589;28;921;-72
2024/02/05 17:21:24;;;;;;;;;;;;;;;17.80;44.63;99774.25;10249447;28;865;-68
2024/02/05 17:26:20;;;;;;;;;;;;;;;17.81;44.41;99781.22;10248159;28;1898;-68
2024/02/05 17:31:16;;;;;;;;;;;;;;;17.81;44.65;99773.31;10248019;28;1098;-68
2024/02/05 17:36:12;;;;;;;;;;;;;;;17.81;44.67;99778.59;10248066;28;969;-68
2024/02/05 17:41:08;;;;;;;;;;;;;;;17.81;44.71;99778.59;10247137;28;991;-68
2024/02/05 17:46:04;;;;;;;;;;;;;;;17.84;44.24;99766.16;10248229;28;1967;-68
2024/02/05 17:50:59;;;;;;;;;;;;;;;17.83;44.53;99779.38;10246641;28;929;-68
2024/02/05 17:55:56;;;;;;;;;;;;;;;17.83;44.69;99784.66;10246981;28;804;-68
2024/02/05 18:00:52;;;;;;;;;;;;;;;17.84;44.62;99786.34;10247362;28;798;-68
2024/02/05 18:05:48;;;;;;;;;;;;;;;17.84;44.71;99787.25;10247116;28;2008;-68
2024/02/05 18:10:44;;;;;;;;;;;;;;;17.86;44.75;99792.44;10246387;28;842;-68
2024/02/05 18:15:39;;;;;;;;;;;;;;;17.87;44.65;99783.63;10246208;28;794;-68
2024/02/05 18:20:36;;;;;;;;;;;;;;;17.87;44.39;99783.63;10246921;28;865;-68
2024/02/05 18:25:32;;;;;;;;;;;;;;;17.92;44.20;99781.59;10246322;28;1945;-68
2024/02/05 18:30:30;;;;;;;;;;;;;;;17.86;44.54;99782.72;10245622;28;1126;-68
2024/02/05 18:35:27;;;;;;;;;;;;;;;17.89;44.39;99784.38;10244408;28;851;-68
2024/02/05 18:40:22;;;;;;;;;;;;;;;17.90;44.37;99776.41;10245701;28;884;-68
2024/02/05 18:45:18;;;;;;;;;;;;;;;17.88;44.30;99773.00;10245668;28;2024;-68
2024/02/05 18:50:14;;;;;;;;;;;;;;;17.89;44.52;99776.47;10244982;28;823;-68
2024/02/05 18:55:10;;;;;;;;;;;;;;;17.89;44.60;99765.94;10245412;28;807;-68
2024/02/05 19:00:06;;;;;;;;;;;;;;;17.90;44.23;99767.66;10245228;28;912;-68
2024/02/05 19:05:02;;;;;;;;;;;;;;;17.90;44.37;99768.50;10244587;28;1893;-68
2024/02/05 19:09:58;;;;;;;;;;;;;;;17.91;44.38;99774.63;10245064;28;759;-68
2024/02/05 19:14:56;;;;;;;;;;;;;;;17.94;43.85;99769.22;10244193;28;802;-68
2024/02/05 19:19:51;;;;;;;;;;;;;;;17.93;44.06;99772.78;10244092;28;861;-68
2024/02/05 19:24:47;;;;;;;;;;;;;;;17.93;44.06;99763.09;10243324;28;1953;-68
2024/02/05 19:29:43;;;;;;;;;;;;;;;17.92;44.08;99766.66;10243377;28;1463;-68
2024/02/05 19:34:39;;;;;;;;;;;;;;;17.94;44.18;99763.94;10243694;28;826;-68
2024/02/05 19:39:35;;;;;;;;;;;;;;;17.95;44.11;99758.63;10244573;28;842;-68
2024/02/05 19:44:31;;;;;;;;;;;;;;;17.94;44.33;99764.78;10243505;28;1910;-68
2024/02/05 19:49:27;;;;;;;;;;;;;;;17.96;44.27;99762.09;10248558;28;889;-68
2024/02/05 19:54:24;;;;;;;;;;;;;;;17.95;44.22;99755.13;10251585;28;898;-68
2024/02/05 19:59:20;;;;;;;;;;;;;;;17.96;44.19;99762.97;10252488;28;799;-68
2024/02/05 20:04:16;;;;;;;;;;;;;;;17.97;44.47;99758.53;10251163;28;977;-68
2024/02/05 20:09:12;;;;;;;;;;;;;;;17.97;44.32;99753.25;10251672;28;1875;-68
2024/02/05 20:14:08;;;;;;;;;;;;;;;17.98;44.47;99756.78;10252070;28;841;-68
2024/02/05 20:19:04;;;;;;;;;;;;;;;17.98;44.48;99760.25;10250813;28;907;-68
2024/02/05 20:24:02;;;;;;;;;;;;;;;18.00;44.16;99753.16;10251191;28;909;-68
2024/02/05 20:28:58;;;;;;;;;;;;;;;17.98;44.17;99747.09;10250243;28;1965;-68
2024/02/05 20:33:55;;;;;;;;;;;;;;;17.96;44.25;99752.41;10251719;28;1405;-68
2024/02/05 20:38:52;;;;;;;;;;;;;;;18.00;43.73;99747.88;10249955;28;962;-68
2024/02/05 20:43:50;;;;;;;;;;;;;;;17.99;43.77;99759.34;10249848;28;870;-68
2024/02/05 20:48:46;;;;;;;;;;;;;;;17.96;43.98;99748.91;10248951;28;2333;-67
2024/02/05 20:53:43;;;;;;;;;;;;;;;17.95;43.53;99755.97;10249396;28;902;-68
2024/02/05 20:58:39;;;;;;;;;;;;;;;17.96;43.94;99746.28;10247903;28;918;-67
2024/02/05 21:03:36;;;;;;;;;;;;;;;17.97;43.63;99753.25;10249053;28;797;-67
2024/02/05 21:08:32;;;;;;;;;;;;;;;17.96;43.73;99749.78;10249221;28;1902;-68
2024/02/05 21:13:28;;;;;;;;;;;;;;;17.95;43.63;99744.59;10249306;28;890;-68
2024/02/05 21:18:24;;;;;;;;;;;;;;;17.93;43.93;99735.88;10248485;28;886;-68
2024/02/05 21:23:20;;;;;;;;;;;;;;;17.92;43.74;99742.94;10248476;28;814;-68
2024/02/05 21:28:16;;;;;;;;;;;;;;;17.94;43.70;99745.50;10248270;28;1902;-67
2024/02/05 21:33:12;;;;;;;;;;;;;;;17.92;43.76;99718.31;10247496;28;1228;-67
2024/02/05 21:38:08;;;;;;;;;;;;;;;17.90;43.79;99722.84;10248760;28;834;-67
2024/02/05 21:43:03;;;;;;;;;;;;;;;17.90;43.63;99721.03;10247814;28;1201;-67
2024/02/05 21:47:59;;;;;;;;;;;;;;;17.89;43.40;99702.66;10248424;28;1914;-67
2024/02/05 21:52:55;;;;;;;;;;;;;;;17.85;43.72;99709.84;10247461;28;953;-67
2024/02/05 21:57:51;;;;;;;;;;;;;;;17.85;43.71;99699.28;10247675;28;869;-68
2024/02/05 22:02:47;;;;;;;;;;;;;;;17.88;43.05;99672.78;10246446;28;975;-67
2024/02/05 22:07:43;;;;;;;;;;;;;;;17.82;43.71;99673.06;10246776;28;1957;-67
2024/02/05 22:12:39;;;;;;;;;;;;;;;17.81;43.72;99683.66;10246653;28;972;-67
2024/02/05 22:17:36;;;;;;;;;;;;;;;17.81;43.44;99679.25;10246426;28;827;-68
2024/02/05 22:22:31;;;;;;;;;;;;;;;17.78;43.53;99676.72;10246859;28;873;-67
2024/02/05 22:27:27;;;;;;;;;;;;;;;17.77;43.38;99698.75;10246658;28;1958;-67
2024/02/05 22:32:23;;;;;;;;;;;;;;;17.76;43.36;99670.66;10245695;28;1456;-67
2024/02/05 22:37:19;;;;;;;;;;;;;;;17.73;43.54;99653.19;10245763;28;925;-67
2024/02/05 22:42:15;;;;;;;;;;;;;;;17.74;43.40;99652.28;10245769;28;1083;-67
2024/02/05 22:47:11;;;;;;;;;;;;;;;17.75;43.21;99646.06;10245279;28;1979;-67
2024/02/05 22:52:07;;;;;;;;;;;;;;;17.74;43.08;99638.25;10245144;28;953;-67
2024/02/05 22:57:03;;;;;;;;;;;;;;;17.73;43.27;99641.81;10245091;28;916;-67
2024/02/05 23:01:59;;;;;;;;;;;;;;;17.71;43.22;99626.06;10244808;28;949;-67
2024/02/05 23:06:54;;;;;;;;;;;;;;;17.68;43.59;99625.34;10244646;28;1957;-67
2024/02/05 23:11:50;;;;;;;;;;;;;;;17.65;43.61;99628.97;10245137;28;966;-67
2024/02/05 23:16:46;;;;;;;;;;;;;;;17.67;43.44;99618.34;10245169;28;870;-67
2024/02/05 23:21:42;;;;;;;;;;;;;;;17.65;43.42;99626.31;10244562;28;814;-67
2024/02/05 23:26:38;;;;;;;;;;;;;;;17.64;43.23;99627.25;10244719;28;1902;-67
2024/02/05 23:31:34;;;;;;;;;;;;;;;17.64;43.29;99627.25;10244354;28;1110;-67
2024/02/05 23:36:30;;;;;;;;;;;;;;;17.63;43.37;99624.69;10244699;28;826;-67
2024/02/05 23:41:25;;;;;;;;;;;;;;;17.62;43.42;99613.28;10244504;28;826;-67
2024/02/05 23:46:21;;;;;;;;;;;;;;;17.62;43.13;99615.91;10243732;28;1906;-67
2024/02/05 23:51:17;;;;;;;;;;;;;;;17.60;43.42;99601.94;10244196;28;806;-67
2024/02/05 23:56:13;;;;;;;;;;;;;;;17.60;43.21;99595.81;10243613;28;879;-67
